• Join FlightAware (Why Join?)
  • Login
  • US Flag 
Gobble Gobble! 
12:15PM EST


 

Airport Tracker/Info


-or-


 

Live Flight TrackerFlight Track Log ✈ CTL18 ✈ 18-Apr-2013 ✈ KYIP - KBKL

Flight Track Log - Related Links

Times and Time Zones

All times are in EDT time to prevent confusion due to time zone crossing. See the CTL18 flight status page for this flight to view local times or setup timezone preferences in your user account.

Time Position Orientation Groundspeed Altitude Reporting Facility
EDT Latitude Longitude Course Direction KTS MPH feet Rate Location/Type
09:02PM 42.2092 -83.5669 217° Southwest 113 130 1,700  Level FAA TRACON SMA TRACON (SMA)
09:02PM 42.2014 -83.5753 218° Southwest 115 132 1,800 420 Climbing FAA TRACON SMA TRACON (SMA)
09:03PM 42.1933 -83.5844 220° Southwest 120 138 2,000 600 Climbing FAA TRACON SMA TRACON (SMA)
09:03PM 42.1833 -83.5956 219° Southwest 121 139 2,200 420 Climbing FAA TRACON SMA TRACON (SMA)
09:03PM 42.1753 -83.6056 223° Southwest 123 142 2,300 420 Climbing FAA TRACON SMA TRACON (SMA)
09:04PM 42.1664 -83.6178 226° Southwest 129 148 2,500 600 Climbing FAA TRACON SMA TRACON (SMA)
09:04PM 42.1533 -83.6183 182° South 141 162 2,700 600 Climbing FAA TRACON SMA TRACON (SMA)
09:04PM 42.1408 -83.6161 172° South 145 167 2,900 420 Climbing FAA TRACON SMA TRACON (SMA)
09:05PM 42.1283 -83.6144 174° South 147 169 3,000 120 Climbing FAA TRACON SMA TRACON (SMA)
09:05PM 42.1128 -83.6133 177° South 149 171 3,000 120 Level FAA TRACON SMA TRACON (SMA)
09:05PM 42.0986 -83.6100 170° South 162 186 3,100 120 Climbing FAA TRACON SMA TRACON (SMA)
09:06PM 42.0847 -83.6061 168° South 168 193 3,100  Level FAA TRACON SMA TRACON (SMA)
09:06PM 42.0689 -83.5986 161° South 175 201 3,100  Level FAA TRACON SMA TRACON (SMA)
09:06PM 42.0539 -83.5894 156° South 173 199 3,100 -180 Level FAA TRACON SMA TRACON (SMA)
09:07PM 42.1284 -83.2393 101° East  Level Estimated
09:07PM 42.0394 -83.5744 142° Southeast 191 220 3,000  Level FAA TRACON SMA TRACON (SMA)
09:07PM 42.0319 -83.5544 117° Southeast 188 216 3,100 120 Climbing FAA TRACON SMA TRACON (SMA)
09:07PM 42.0267 -83.5356 111° Southeast 188 216 3,100  Level FAA TRACON SMA TRACON (SMA)
09:08PM 42.0211 -83.5100 106° East 190 219 3,100 -180 Level FAA TRACON SMA TRACON (SMA)
09:08PM 42.0167 -83.4900 107° East 194 223 3,000  Descending FAA TRACON SMA TRACON (SMA)
09:08PM 42.0108 -83.4642 107° East 193 222 3,100 120 Climbing FAA TRACON SMA TRACON (SMA)
09:09PM 42.0044 -83.4392 109° East 194 223 3,100  Level FAA TRACON SMA TRACON (SMA)
09:09PM 41.9986 -83.4192 111° Southeast 190 219 3,100 -180 Level FAA TRACON SMA TRACON (SMA)
09:09PM 41.9919 -83.3972 112° Southeast 192 221 3,000 -180 Descending FAA TRACON SMA TRACON (SMA)
09:10PM 41.9869 -83.3806 112° Southeast 193 222 3,000  Level FAA TRACON SMA TRACON (SMA)
09:10PM 41.9792 -83.3544 112° Southeast 194 223 3,000  Level FAA TRACON SMA TRACON (SMA)
09:10PM 41.9711 -83.3308 115° Southeast 192 221 3,000  Level FAA TRACON SMA TRACON (SMA)
09:11PM 41.9642 -83.3067 111° Southeast 191 220 3,000  Level FAA TRACON SMA TRACON (SMA)
09:11PM 41.9592 -83.2878 110° East 191 220 3,000 120 Level FAA TRACON SMA TRACON (SMA)
09:11PM 41.9525 -83.2658 112° Southeast 183 211 3,100 420 Climbing FAA TRACON SMA TRACON (SMA)
09:12PM 41.9453 -83.2406 111° Southeast 188 216 3,300 420 Climbing FAA TRACON SMA TRACON (SMA)
09:12PM 41.9414 -83.2233 107° East 185 213 3,400 120 Climbing FAA TRACON SMA TRACON (SMA)
09:12PM 41.9353 -83.2006 110° East 186 214 3,400 300 Level FAA TRACON SMA TRACON (SMA)
09:13PM 41.9294 -83.1742 107° East 189 217 3,600 420 Climbing FAA TRACON SMA TRACON (SMA)
09:13PM 41.9242 -83.1544 110° East 191 220 3,700 300 Climbing FAA TRACON SMA TRACON (SMA)
09:13PM 41.9192 -83.1311 106° East 194 223 3,800 360 Climbing Cleveland Center
09:14PM 41.9019 -83.0633 109° East 191 220 4,200 360 Climbing Cleveland Center
09:15PM 41.8844 -82.9958 109° East 183 211 4,600 300 Climbing Cleveland Center
09:16PM 41.8714 -82.9283 105° East 190 219 4,900 240 Climbing Cleveland Center
09:17PM 41.8633 -82.9086 119° Southeast 189 217 5,000 60 Climbing Cleveland Center
09:18PM 41.8461 -82.8353 107° East 188 216 5,000  Level Cleveland Center
09:19PM 41.8267 -82.7622 110° East 190 219 5,100  Climbing Cleveland Center
09:20PM 41.8133 -82.7006 106° East 183 211 5,000 -60 Descending Cleveland Center
09:21PM 41.7997 -82.6361 106° East 182 209 5,000  Level Cleveland Center
09:22PM 41.7803 -82.5631 110° East 180 207 5,100  Climbing Cleveland Center
09:23PM 41.7647 -82.4983 108° East 172 198 5,100 -300 Level Cleveland Center
09:24PM 41.7469 -82.4367 111° Southeast 183 211 4,600 -360 Descending Cleveland Center
09:25PM 41.7250 -82.3692 114° Southeast 183 211 4,400 -300 Descending Cleveland Center
09:26PM 41.7072 -82.3131 113° Southeast 176 203 4,000 -480 Descending Cleveland Center
09:27PM 41.6933 -82.2544 108° East 181 208 3,600 -480 Descending Cleveland Center
09:28PM 41.6756 -82.1872 109° East 189 217 3,100 -240 Descending Cleveland Center
09:29PM 41.6517 -82.1089 112° Southeast 188 216 3,100  Level Cleveland Center
09:30PM 41.6358 -82.0472 109° East 178 205 3,100 -240 Level Cleveland Center
09:31PM 41.6178 -81.9831 111° Southeast 179 206 2,700 -420 Descending Cleveland Center
09:32PM 41.5978 -81.9214 113° Southeast 197 227 2,400 -360 Descending Cleveland Center
09:33PM 41.5839 -81.8628 108° East 195 224 2,100 -300 Descending Cleveland Center
09:34PM 41.5575 -81.7847 114° Southeast 192 221 1,900 -240 Descending Cleveland Center
09:35PM 41.5417 -81.7206 108° East 186 214 1,700 -360 Descending Cleveland Center
09:36PM 41.5378 -81.6678 96° East 146 168 1,200 -540 Descending Cleveland Center